Time;durP1;ratioP1;P1;durP2;ratioP2;P2;SDS_P1;SDS_P2;PMS_P1;PMS_P2;Temp;Humidity;BMP_temperature;BMP_pressure;BME280_temperature;BME280_humidity;BME280_pressure;Samples;Min_cycle;Max_cycle;Signal;HPM_P1;HPM_P2
2022/10/06 00:01:05;;;;;;;9.32;1.88;;;14.30;99.90;;;;;;5015675;28;20094;-70
2022/10/06 00:03:31;;;;;;;8.80;0.98;;;14.40;99.90;;;;;;5032270;28;20045;-69
2022/10/06 00:06:02;;;;;;;4.65;1.27;;;14.30;99.90;;;;;;5015743;28;20050;-70
2022/10/06 00:08:29;;;;;;;3.72;0.95;;;14.30;99.90;;;;;;5015102;28;20398;-70
2022/10/06 00:10:55;;;;;;;8.65;1.10;;;14.30;99.90;;;;;;5063214;28;20045;-70
2022/10/06 00:13:23;;;;;;;4.25;0.82;;;14.30;99.90;;;;;;5031417;28;20037;-69
2022/10/06 00:15:48;;;;;;;6.05;1.17;;;14.20;99.90;;;;;;5065348;28;20041;-70
2022/10/06 00:18:14;;;;;;;5.78;1.00;;;14.20;99.90;;;;;;5031990;28;20053;-70
2022/10/06 00:20:42;;;;;;;6.43;1.08;;;14.10;99.90;;;;;;5031460;28;20045;-69
2022/10/06 00:23:08;;;;;;;6.32;1.10;;;14.10;99.90;;;;;;5048321;28;20043;-69
2022/10/06 00:25:33;;;;;;;8.80;1.25;;;14.10;99.90;;;;;;5031976;28;20124;-69
2022/10/06 00:27:59;;;;;;;7.45;1.55;;;14.00;99.90;;;;;;5062292;28;20044;-69
2022/10/06 00:30:26;;;;;;;6.95;1.20;;;14.10;99.90;;;;;;5014304;28;20041;-69
2022/10/06 00:32:58;;;;;;;8.98;1.40;;;14.10;99.90;;;;;;5028164;28;20096;-69
2022/10/06 00:35:26;;;;;;;4.82;1.25;;;14.10;99.90;;;;;;5028616;28;20038;-70
2022/10/06 00:37:52;;;;;;;5.38;0.95;;;14.00;99.90;;;;;;5016931;28;20072;-70
2022/10/06 00:40:18;;;;;;;3.30;1.00;;;14.00;99.90;;;;;;5009385;28;20038;-70
2022/10/06 00:42:54;;;;;;;3.67;0.88;;;13.90;99.90;;;;;;5005235;28;20044;-69
2022/10/06 00:45:28;;;;;;;6.72;1.10;;;13.90;99.90;;;;;;5031815;28;20037;-70
2022/10/06 00:47:55;;;;;;;6.35;1.17;;;14.00;99.90;;;;;;5031748;28;20120;-70
2022/10/06 00:50:21;;;;;;;8.65;1.15;;;14.00;99.90;;;;;;5048363;28;20116;-70
2022/10/06 00:52:46;;;;;;;5.75;1.15;;;14.00;99.90;;;;;;5063728;28;20578;-70
2022/10/06 00:55:13;;;;;;;6.20;1.10;;;13.90;99.90;;;;;;5030800;28;20095;-70
2022/10/06 00:57:39;;;;;;;6.55;1.73;;;13.90;99.90;;;;;;5031647;28;20129;-70
2022/10/06 01:00:06;;;;;;;4.22;1.00;;;13.90;99.90;;;;;;5030446;28;20060;-70
2022/10/06 01:02:43;;;;;;;6.68;1.15;;;13.80;99.90;;;;;;5047130;28;20087;-70
2022/10/06 01:05:15;;;;;;;4.68;0.90;;;13.80;99.90;;;;;;5048439;28;20395;-70
2022/10/06 01:07:40;;;;;;;8.23;1.20;;;13.80;99.90;;;;;;5048114;28;20513;-70
2022/10/06 01:10:06;;;;;;;5.82;1.10;;;13.70;99.90;;;;;;5046204;28;20045;-70
2022/10/06 01:12:33;;;;;;;6.95;1.20;;;13.80;99.90;;;;;;5029678;28;20076;-70
2022/10/06 01:14:59;;;;;;;6.55;1.17;;;13.80;99.90;;;;;;5015071;28;20120;-69
2022/10/06 01:17:33;;;;;;;7.72;1.13;;;13.70;99.90;;;;;;5026428;28;20534;-70
2022/10/06 01:20:01;;;;;;;8.32;1.30;;;13.70;99.90;;;;;;5030488;28;20048;-70
2022/10/06 01:22:34;;;;;;;7.10;1.38;;;13.70;99.90;;;;;;5047194;28;20045;-70
2022/10/06 01:25:00;;;;;;;5.88;1.10;;;13.70;99.90;;;;;;5047975;28;20038;-70
2022/10/06 01:27:28;;;;;;;8.65;1.38;;;13.60;99.90;;;;;;5030820;28;20189;-70
2022/10/06 01:29:55;;;;;;;10.13;1.55;;;13.50;99.90;;;;;;5031045;28;20470;-70
2022/10/06 01:32:23;;;;;;;7.95;1.30;;;13.50;99.90;;;;;;5045230;28;20045;-69
2022/10/06 01:34:49;;;;;;;8.45;1.58;;;13.60;99.90;;;;;;5015095;28;20041;-70
2022/10/06 01:37:15;;;;;;;6.38;1.23;;;13.60;99.90;;;;;;5002122;28;20042;-70
2022/10/06 01:39:42;;;;;;;9.25;1.60;;;13.50;99.90;;;;;;5037930;28;20425;-69
2022/10/06 01:42:08;;;;;;;7.93;1.23;;;13.50;99.90;;;;;;5032550;28;20426;-70
2022/10/06 01:44:34;;;;;;;8.70;1.75;;;13.40;99.90;;;;;;5035026;28;20034;-70
2022/10/06 01:46:59;;;;;;;8.48;1.25;;;13.40;99.90;;;;;;5017584;28;20132;-70
2022/10/06 01:49:25;;;;;;;6.55;1.30;;;13.40;99.90;;;;;;5034692;28;20049;-69
2022/10/06 01:51:51;;;;;;;10.13;1.58;;;13.30;99.90;;;;;;5017319;28;20045;-69
2022/10/06 01:54:16;;;;;;;8.35;1.58;;;13.30;99.90;;;;;;5051233;28;20038;-70
2022/10/06 01:56:42;;;;;;;7.18;1.30;;;13.30;99.90;;;;;;5051027;28;20084;-70
2022/10/06 01:59:07;;;;;;;11.65;1.45;;;13.20;99.90;;;;;;5050809;28;20041;-70
2022/10/06 02:01:34;;;;;;;10.05;1.48;;;13.30;99.90;;;;;;5049976;28;20045;-70
2022/10/06 02:04:00;;;;;;;12.60;1.75;;;13.40;99.90;;;;;;5034729;28;20399;-70
2022/10/06 02:06:25;;;;;;;10.70;2.35;;;13.40;99.90;;;;;;5067635;28;20038;-70
2022/10/06 02:08:51;;;;;;;11.77;1.98;;;13.30;99.90;;;;;;5017523;28;20056;-69
2022/10/06 02:11:18;;;;;;;9.10;2.33;;;13.20;99.90;;;;;;5017004;28;20034;-70
2022/10/06 02:13:44;;;;;;;9.68;1.50;;;13.20;99.90;;;;;;5050873;28;20037;-70
2022/10/06 02:16:12;;;;;;;7.13;1.52;;;13.10;99.90;;;;;;5050911;28;20034;-70
2022/10/06 02:18:38;;;;;;;7.70;1.40;;;13.10;99.90;;;;;;5046305;28;20046;-70
2022/10/06 02:21:04;;;;;;;10.48;1.42;;;13.10;99.90;;;;;;5031136;28;20043;-70
2022/10/06 02:23:30;;;;;;;8.63;1.73;;;13.10;99.90;;;;;;5050144;28;20045;-70
2022/10/06 02:26:04;;;;;;;8.25;1.65;;;13.10;99.90;;;;;;5034005;28;20053;-70
2022/10/06 02:28:30;;;;;;;12.00;1.42;;;13.10;99.90;;;;;;5019619;28;20671;-70
2022/10/06 02:31:05;;;;;;;5.97;1.35;;;13.10;99.90;;;;;;5021130;28;20136;-70
2022/10/06 02:33:30;;;;;;;12.60;1.98;;;13.00;99.90;;;;;;5033913;28;20038;-70
2022/10/06 02:35:57;;;;;;;6.43;1.23;;;13.00;99.90;;;;;;5034218;28;20124;-70
2022/10/06 02:38:23;;;;;;;9.02;1.95;;;13.00;99.90;;;;;;5032165;28;20040;-70
2022/10/06 02:40:49;;;;;;;10.88;1.83;;;13.00;99.90;;;;;;5032337;28;20045;-70
2022/10/06 02:43:15;;;;;;;8.73;1.48;;;13.00;99.90;;;;;;5016997;28;20044;-70
2022/10/06 02:45:42;;;;;;;9.05;1.70;;;12.90;99.90;;;;;;5049489;28;20414;-70
2022/10/06 02:48:10;;;;;;;6.22;1.20;;;12.90;99.90;;;;;;5066318;28;20045;-70
2022/10/06 02:50:37;;;;;;;6.40;1.42;;;12.90;99.90;;;;;;5032508;28;20045;-70
2022/10/06 02:53:05;;;;;;;6.32;1.05;;;12.90;99.90;;;;;;5050046;28;20116;-70
2022/10/06 02:55:31;;;;;;;9.40;1.45;;;12.90;99.90;;;;;;5033455;28;20049;-70
2022/10/06 02:57:56;;;;;;;7.03;1.60;;;12.90;99.90;;;;;;5048906;28;20396;-70
2022/10/06 03:00:22;;;;;;;10.25;1.27;;;12.90;99.90;;;;;;5050167;28;20041;-70
2022/10/06 03:02:48;;;;;;;10.00;1.52;;;12.90;99.90;;;;;;5049215;28;20038;-70
2022/10/06 03:05:13;;;;;;;9.57;1.52;;;12.90;99.90;;;;;;5033254;28;20041;-70
2022/10/06 03:07:39;;;;;;;7.68;1.15;;;12.90;99.90;;;;;;5049056;28;20120;-69
2022/10/06 03:10:05;;;;;;;10.20;1.77;;;12.80;99.90;;;;;;5065481;28;20513;-70
2022/10/06 03:12:30;;;;;;;10.63;1.90;;;12.90;99.90;;;;;;5030810;28;20068;-70
2022/10/06 03:14:56;;;;;;;9.35;1.85;;;12.80;99.90;;;;;;5032362;28;20442;-70
2022/10/06 03:17:21;;;;;;;9.13;1.77;;;12.80;99.90;;;;;;5066239;28;20073;-70
2022/10/06 03:19:47;;;;;;;8.40;1.38;;;12.80;99.90;;;;;;5049577;28;20091;-70
2022/10/06 03:22:12;;;;;;;9.40;1.70;;;12.80;99.90;;;;;;5030999;28;20074;-70
2022/10/06 03:24:38;;;;;;;11.85;1.35;;;12.80;99.90;;;;;;5016461;28;20056;-70
2022/10/06 03:27:04;;;;;;;8.80;1.58;;;12.70;99.90;;;;;;5065234;28;20126;-70
2022/10/06 03:29:29;;;;;;;7.55;1.25;;;12.70;99.90;;;;;;5033996;28;20052;-70
2022/10/06 03:31:56;;;;;;;11.07;1.45;;;12.70;99.90;;;;;;5031564;28;20049;-70
2022/10/06 03:34:22;;;;;;;5.80;1.40;;;12.60;99.90;;;;;;5032662;28;20041;-70
2022/10/06 03:36:48;;;;;;;6.07;1.15;;;12.50;99.90;;;;;;5049213;28;20041;-70
2022/10/06 03:39:14;;;;;;;8.40;1.42;;;12.60;99.90;;;;;;5064395;28;20045;-70
2022/10/06 03:41:39;;;;;;;8.35;1.77;;;12.60;99.90;;;;;;5047664;28;20036;-70
2022/10/06 03:44:05;;;;;;;7.55;1.20;;;12.50;99.90;;;;;;5032779;28;20143;-70
2022/10/06 03:46:33;;;;;;;6.97;1.30;;;12.50;99.90;;;;;;5032517;28;20037;-70
2022/10/06 03:49:00;;;;;;;9.95;1.40;;;12.50;99.90;;;;;;5032093;28;20045;-70
2022/10/06 03:51:28;;;;;;;9.30;1.50;;;12.50;99.90;;;;;;5031433;28;20099;-70
2022/10/06 03:53:54;;;;;;;8.75;1.27;;;12.40;99.90;;;;;;5048560;28;20038;-70
2022/10/06 03:56:29;;;;;;;8.48;1.40;;;12.40;99.90;;;;;;5012483;28;20084;-70
2022/10/06 03:58:58;;;;;;;8.52;1.30;;;12.30;99.90;;;;;;5025698;28;20610;-70
2022/10/06 04:01:25;;;;;;;7.95;1.40;;;12.40;99.90;;;;;;5033941;28;20087;-70
2022/10/06 04:03:53;;;;;;;8.68;1.40;;;12.40;99.90;;;;;;5032213;28;20610;-70
2022/10/06 04:06:19;;;;;;;9.77;1.42;;;12.30;99.90;;;;;;5032235;28;20124;-70
2022/10/06 04:08:47;;;;;;;6.68;1.25;;;12.30;99.90;;;;;;5029037;28;20112;-70
2022/10/06 04:11:33;;;;;;;7.53;1.30;;;12.40;99.90;;;;;;5022262;28;20445;-70
2022/10/06 04:14:01;;;;;;;7.07;1.10;;;12.30;99.90;;;;;;5032300;28;20034;-70
2022/10/06 04:16:30;;;;;;;11.40;1.40;;;12.30;99.90;;;;;;5015609;28;20068;-70
2022/10/06 04:18:58;;;;;;;7.90;1.65;;;12.30;99.90;;;;;;5014850;28;20081;-70
2022/10/06 04:21:24;;;;;;;8.05;1.30;;;12.30;99.90;;;;;;5014019;28;20080;-70
2022/10/06 04:23:55;;;;;;;5.88;1.10;;;12.30;99.90;;;;;;5032153;28;20049;-70
2022/10/06 04:26:22;;;;;;;11.48;1.95;;;12.30;99.90;;;;;;5048827;28;20129;-70
2022/10/06 04:28:48;;;;;;;9.10;1.50;;;12.30;99.90;;;;;;5047738;28;20095;-70
2022/10/06 04:31:19;;;;;;;10.32;1.63;;;12.20;99.90;;;;;;5047316;28;20050;-70
2022/10/06 04:33:46;;;;;;;8.80;1.50;;;12.10;99.90;;;;;;5031724;28;20549;-70
2022/10/06 04:36:15;;;;;;;8.95;1.67;;;12.20;99.90;;;;;;5031845;28;20037;-70
2022/10/06 04:38:41;;;;;;;7.50;1.50;;;12.10;99.90;;;;;;5046677;28;20097;-70
2022/10/06 04:41:13;;;;;;;11.77;1.80;;;12.10;99.90;;;;;;5030673;28;20076;-70
2022/10/06 04:43:38;;;;;;;11.07;1.70;;;12.10;99.90;;;;;;5014571;28;20037;-70
2022/10/06 04:46:05;;;;;;;9.23;1.52;;;12.00;99.90;;;;;;5047452;28;20296;-70
2022/10/06 04:48:31;;;;;;;8.40;1.58;;;12.00;99.90;;;;;;5048243;28;20048;-70
2022/10/06 04:50:59;;;;;;;8.38;1.50;;;12.00;99.90;;;;;;5048236;28;20048;-70
2022/10/06 04:53:25;;;;;;;6.03;1.27;;;11.90;99.90;;;;;;5030211;28;20434;-70
2022/10/06 04:56:19;;;;;;;8.35;1.40;;;11.90;99.90;;;;;;5030136;28;20076;-70
2022/10/06 04:58:49;;;;;;;11.30;1.70;;;11.90;99.90;;;;;;5010399;28;20582;-70
2022/10/06 05:01:36;;;;;;;10.40;2.15;;;11.90;99.90;;;;;;4995838;28;20096;-70
2022/10/06 05:04:03;;;;;;;10.38;1.55;;;11.90;99.90;;;;;;5062337;28;20067;-70
2022/10/06 05:06:38;;;;;;;10.27;1.70;;;11.80;99.90;;;;;;5030558;28;20091;-70
2022/10/06 05:09:09;;;;;;;9.80;2.08;;;11.90;99.90;;;;;;5034521;28;20048;-70
2022/10/06 05:11:35;;;;;;;10.48;1.60;;;11.90;99.90;;;;;;5034626;28;20411;-70
2022/10/06 05:14:00;;;;;;;8.75;1.45;;;11.90;99.90;;;;;;5018075;28;20038;-70
2022/10/06 05:16:28;;;;;;;9.30;1.48;;;11.90;99.90;;;;;;5051189;28;20037;-70
2022/10/06 05:18:53;;;;;;;8.32;1.40;;;11.90;99.90;;;;;;5051122;28;20037;-70
2022/10/06 05:21:21;;;;;;;13.75;1.65;;;11.90;99.90;;;;;;5068764;28;20037;-70
2022/10/06 05:23:47;;;;;;;11.57;1.20;;;12.00;99.90;;;;;;5051849;28;20124;-70
2022/10/06 05:26:16;;;;;;;7.55;1.40;;;11.90;99.90;;;;;;5034868;28;20248;-70
2022/10/06 05:28:41;;;;;;;8.95;1.42;;;11.90;99.90;;;;;;5021040;28;20504;-70
2022/10/06 05:31:13;;;;;;;7.50;1.35;;;11.90;99.90;;;;;;5015266;28;20082;-70
2022/10/06 05:33:39;;;;;;;7.70;1.40;;;11.90;99.90;;;;;;5015216;28;20042;-70
2022/10/06 05:36:28;;;;;;;9.90;1.95;;;11.80;99.90;;;;;;5039793;28;20399;-70
2022/10/06 05:38:55;;;;;;;6.65;1.38;;;11.80;99.90;;;;;;5050665;28;20041;-70
2022/10/06 05:41:29;;;;;;;10.02;1.70;;;11.80;99.90;;;;;;5018456;28;20103;-70
2022/10/06 05:43:55;;;;;;;11.48;1.50;;;11.80;99.90;;;;;;5016885;28;20034;-70
2022/10/06 05:46:29;;;;;;;8.30;1.88;;;11.90;99.90;;;;;;5033764;28;20042;-70
2022/10/06 05:49:00;;;;;;;10.25;1.45;;;11.80;99.90;;;;;;5034605;28;20041;-70
2022/10/06 05:51:28;;;;;;;9.70;1.60;;;11.80;99.90;;;;;;5034736;28;20044;-70
2022/10/06 05:53:54;;;;;;;9.07;1.48;;;11.80;99.90;;;;;;5033397;28;20681;-70
2022/10/06 05:56:24;;;;;;;11.48;2.03;;;11.80;99.90;;;;;;5033087;28;20053;-70
2022/10/06 05:58:52;;;;;;;9.00;2.28;;;11.90;99.90;;;;;;5050990;28;20478;-70
2022/10/06 06:01:21;;;;;;;9.98;1.60;;;11.80;99.90;;;;;;5051030;28;20072;-71
2022/10/06 06:04:01;;;;;;;9.68;1.85;;;11.90;99.90;;;;;;5067048;28;20518;-70
2022/10/06 06:06:28;;;;;;;7.88;1.30;;;11.80;99.90;;;;;;5050134;28;20434;-70
2022/10/06 06:08:55;;;;;;;10.05;1.45;;;11.80;99.90;;;;;;5025371;28;20510;-71
2022/10/06 06:11:24;;;;;;;10.68;1.77;;;11.80;99.90;;;;;;5021499;28;20503;-70
2022/10/06 06:13:56;;;;;;;13.38;1.60;;;11.80;99.90;;;;;;5031778;28;20505;-70
2022/10/06 06:16:22;;;;;;;;;;;11.80;99.90;;;;;;5051240;28;20040;-70
2022/10/06 06:18:47;;;;;;;10.75;1.48;;;11.80;99.90;;;;;;5049305;28;19917;-70
2022/10/06 06:21:13;;;;;;;8.95;1.60;;;11.80;99.90;;;;;;5046706;28;20041;-70
2022/10/06 06:23:45;;;;;;;9.10;1.27;;;11.80;99.90;;;;;;5049979;28;20437;-70
2022/10/06 06:26:17;;;;;;;9.30;1.80;;;11.80;99.90;;;;;;5049094;28;20041;-70
2022/10/06 06:28:45;;;;;;;9.63;1.50;;;11.80;99.90;;;;;;5031641;28;20052;-70
2022/10/06 06:31:22;;;;;;;9.63;1.75;;;11.90;99.90;;;;;;5037138;28;20079;-70
2022/10/06 06:33:51;;;;;;;9.18;1.88;;;11.80;99.90;;;;;;5024127;28;20034;-70
2022/10/06 06:36:23;;;;;;;8.43;1.63;;;11.90;99.90;;;;;;5024963;28;20030;-70
2022/10/06 06:38:51;;;;;;;11.23;1.50;;;11.90;99.90;;;;;;5064472;28;20053;-70
2022/10/06 06:41:19;;;;;;;10.05;1.88;;;11.90;99.90;;;;;;5049510;28;20033;-70
2022/10/06 06:43:45;;;;;;;12.30;2.00;;;11.90;99.90;;;;;;5049842;28;20077;-70
2022/10/06 06:46:13;;;;;;;9.27;1.63;;;11.90;99.90;;;;;;5049539;28;20053;-70
2022/10/06 06:48:39;;;;;;;12.57;1.75;;;11.90;99.90;;;;;;5049383;28;20049;-71
2022/10/06 06:51:06;;;;;;;13.20;2.17;;;11.90;99.90;;;;;;5032920;28;20046;-70
2022/10/06 06:53:32;;;;;;;10.70;2.22;;;11.90;99.90;;;;;;5047958;28;20068;-70
2022/10/06 06:55:57;;;;;;;10.00;1.90;;;12.00;99.90;;;;;;5032908;28;20080;-70
2022/10/06 06:58:23;;;;;;;9.77;1.52;;;12.10;99.90;;;;;;5065419;28;20053;-71
2022/10/06 07:00:49;;;;;;;12.25;1.80;;;12.10;99.90;;;;;;5049167;28;20038;-70
2022/10/06 07:03:17;;;;;;;12.23;1.50;;;12.10;99.90;;;;;;5066364;28;20033;-70
2022/10/06 07:05:45;;;;;;;14.02;1.77;;;12.20;99.90;;;;;;5049838;28;20041;-70
2022/10/06 07:08:14;;;;;;;8.50;1.50;;;12.10;99.90;;;;;;5031950;28;20042;-70
2022/10/06 07:10:43;;;;;;;9.38;1.80;;;12.20;99.90;;;;;;5030858;28;20029;-70
2022/10/06 07:13:13;;;;;;;9.48;1.45;;;12.20;99.90;;;;;;5066365;28;20065;-70
2022/10/06 07:26:44;;;;;;;9.95;1.80;;;12.50;99.90;;;;;;5053099;28;20503;-70
2022/10/06 07:29:10;;;;;;;14.45;1.75;;;12.50;99.90;;;;;;5031999;28;20091;-70
2022/10/06 07:31:36;;;;;;;9.85;1.45;;;12.50;99.90;;;;;;5065241;28;20518;-70
2022/10/06 07:34:03;;;;;;;9.98;1.65;;;12.70;99.90;;;;;;5032682;28;20124;-70
2022/10/06 07:36:30;;;;;;;10.80;2.42;;;12.70;99.90;;;;;;5007891;28;20060;-70
2022/10/06 07:38:56;;;;;;;11.95;1.70;;;12.70;99.90;;;;;;5001807;28;20406;-71
2022/10/06 07:41:22;;;;;;;10.02;1.63;;;12.70;99.90;;;;;;5003640;28;20042;-70
2022/10/06 07:43:48;;;;;;;11.70;1.90;;;12.70;99.90;;;;;;5018945;28;20102;-70
2022/10/06 07:46:13;;;;;;;10.82;1.98;;;12.70;99.90;;;;;;5032201;28;20482;-70
2022/10/06 07:48:39;;;;;;;12.80;1.88;;;12.70;99.90;;;;;;5047987;28;20490;-71
2022/10/06 07:51:14;;;;;;;10.55;1.83;;;12.80;99.90;;;;;;5028567;28;20227;-70
2022/10/06 07:53:40;;;;;;;8.65;1.70;;;12.80;99.90;;;;;;5000982;28;20044;-70
2022/10/06 07:56:06;;;;;;;12.73;1.83;;;12.80;99.90;;;;;;5030551;28;20041;-70
2022/10/06 07:58:33;;;;;;;10.63;1.77;;;12.90;99.90;;;;;;5031350;28;20049;-70
2022/10/06 08:01:07;;;;;;;8.55;2.15;;;12.90;99.90;;;;;;5048511;28;20077;-71
2022/10/06 08:03:33;;;;;;;10.57;1.98;;;12.90;99.90;;;;;;5030973;28;20439;-70
2022/10/06 08:06:00;;;;;;;10.70;1.75;;;13.00;99.90;;;;;;5047819;28;20091;-70
2022/10/06 08:08:26;;;;;;;12.68;1.80;;;13.00;99.90;;;;;;5027212;28;20041;-71
2022/10/06 08:10:57;;;;;;;9.48;1.70;;;13.10;99.90;;;;;;5017612;28;20116;-71
2022/10/06 08:13:23;;;;;;;11.05;1.52;;;13.10;99.90;;;;;;5047799;28;20038;-70
2022/10/06 08:15:50;;;;;;;10.73;1.52;;;13.20;99.90;;;;;;5046287;28;20041;-70
2022/10/06 08:18:16;;;;;;;8.82;1.67;;;13.10;99.90;;;;;;5034247;28;20059;-70
2022/10/06 08:20:42;;;;;;;11.13;2.20;;;13.30;99.90;;;;;;5010809;28;20034;-71
2022/10/06 08:23:11;;;;;;;12.43;1.58;;;13.30;99.90;;;;;;5018580;28;20087;-71
2022/10/06 08:25:42;;;;;;;10.85;1.88;;;13.40;99.90;;;;;;5048131;28;20033;-70
2022/10/06 08:28:11;;;;;;;11.40;2.00;;;13.40;99.90;;;;;;5029629;28;20037;-71
2022/10/06 08:30:38;;;;;;;10.93;1.77;;;13.50;99.90;;;;;;5022052;28;20034;-71
2022/10/06 08:33:04;;;;;;;13.73;1.90;;;13.60;99.90;;;;;;5007893;28;20112;-71
2022/10/06 08:35:34;;;;;;;10.07;1.80;;;13.70;99.90;;;;;;5029808;28;20069;-71
2022/10/06 08:38:00;;;;;;;12.38;2.10;;;13.70;99.90;;;;;;5061508;28;20037;-70
2022/10/06 08:40:27;;;;;;;10.10;1.85;;;13.80;99.90;;;;;;5042044;28;20073;-71
2022/10/06 08:42:57;;;;;;;11.48;1.60;;;13.80;99.90;;;;;;5032108;28;20044;-71
2022/10/06 08:45:34;;;;;;;7.40;1.67;;;13.90;99.90;;;;;;5034273;28;20102;-71
2022/10/06 08:48:04;;;;;;;8.60;1.65;;;14.00;99.90;;;;;;5045828;28;20041;-70
2022/10/06 08:50:37;;;;;;;13.70;2.20;;;14.10;99.90;;;;;;5034780;28;20395;-81
2022/10/06 08:53:30;;;;;;;12.55;2.20;;;14.10;99.90;;;;;;5032277;28;20037;-81
2022/10/06 08:56:11;;;;;;;12.48;2.30;;;14.20;99.90;;;;;;5047744;28;20069;-72
2022/10/06 08:58:51;;;;;;;11.75;2.10;;;14.30;99.90;;;;;;5017973;28;20453;-72
2022/10/06 09:01:22;;;;;;;11.73;2.28;;;14.40;99.90;;;;;;5017053;28;20081;-72
2022/10/06 09:03:55;;;;;;;7.65;1.90;;;14.50;99.90;;;;;;5013885;28;20121;-72
2022/10/06 09:06:49;;;;;;;13.10;2.40;;;14.60;99.90;;;;;;5031275;28;20076;-72
2022/10/06 09:09:43;;;;;;;13.93;2.47;;;14.60;99.90;;;;;;5018080;28;20095;-73
2022/10/06 09:12:42;;;;;;;12.38;3.08;;;14.60;99.90;;;;;;5032518;28;20519;-73
2022/10/06 09:15:20;;;;;;;11.48;2.50;;;14.60;99.90;;;;;;5032108;28;20091;-72
2022/10/06 09:18:12;;;;;;;13.35;2.80;;;14.70;99.90;;;;;;5032920;28;20429;-72
2022/10/06 09:20:45;;;;;;;10.80;2.17;;;14.70;99.90;;;;;;5012131;28;20045;-72
2022/10/06 09:23:16;;;;;;;9.50;2.20;;;14.80;99.90;;;;;;5050733;28;20072;-73
2022/10/06 09:25:43;;;;;;;12.38;1.88;;;14.90;99.90;;;;;;5031159;28;20041;-72
2022/10/06 09:28:14;;;;;;;7.07;1.30;;;14.90;99.90;;;;;;5031534;28;20040;-72
2022/10/06 09:30:42;;;;;;;8.02;1.50;;;15.00;99.90;;;;;;5032896;28;20045;-72
2022/10/06 09:33:17;;;;;;;13.65;2.90;;;14.90;99.90;;;;;;5033861;28;20116;-72
2022/10/06 09:36:09;;;;;;;9.18;1.85;;;14.90;99.90;;;;;;5061037;28;20038;-72
2022/10/06 09:38:52;;;;;;;8.23;1.58;;;15.00;99.90;;;;;;5018378;28;20499;-72
2022/10/06 09:41:23;;;;;;;12.85;1.77;;;15.10;99.90;;;;;;5034122;28;20116;-71
2022/10/06 09:43:55;;;;;;;8.65;1.40;;;15.00;99.90;;;;;;5050083;28;20063;-72
2022/10/06 09:46:34;;;;;;;10.43;2.22;;;15.00;99.90;;;;;;5049957;28;20123;-71
2022/10/06 09:49:23;;;;;;;11.32;1.80;;;14.90;99.90;;;;;;5033830;28;20045;-71
2022/10/06 09:52:02;;;;;;;6.28;1.35;;;14.80;99.90;;;;;;5014328;28;20050;-70
2022/10/06 09:54:30;;;;;;;9.38;1.60;;;14.80;99.90;;;;;;5016285;28;20438;-72
2022/10/06 09:56:58;;;;;;;10.40;1.50;;;14.90;99.90;;;;;;5065193;28;20053;-72
2022/10/06 09:59:35;;;;;;;11.77;1.88;;;15.10;99.90;;;;;;5016516;28;20407;-71
2022/10/06 10:02:03;;;;;;;11.38;1.70;;;15.10;99.90;;;;;;5027337;28;20484;-72
2022/10/06 10:04:39;;;;;;;11.68;1.70;;;15.20;99.90;;;;;;5014741;28;20041;-72
2022/10/06 10:07:28;;;;;;;8.45;1.75;;;15.40;99.90;;;;;;5047845;28;20495;-71
2022/10/06 10:10:19;;;;;;;9.20;1.65;;;15.40;99.90;;;;;;5047554;28;20299;-72
2022/10/06 10:12:53;;;;;;;8.93;1.20;;;15.60;99.90;;;;;;5023133;28;20499;-71
2022/10/06 10:15:19;;;;;;;7.25;1.35;;;15.80;99.90;;;;;;5048868;28;20060;-71
2022/10/06 10:17:47;;;;;;;6.95;1.25;;;15.60;99.90;;;;;;5038500;28;20050;-71
2022/10/06 10:20:34;;;;;;;6.55;1.30;;;15.50;99.90;;;;;;5028829;28;20399;-71
2022/10/06 10:23:22;;;;;;;7.72;1.20;;;15.30;99.90;;;;;;5031208;28;20044;-72
2022/10/06 10:25:48;;;;;;;9.38;1.55;;;15.20;99.90;;;;;;5016798;28;20052;-71
2022/10/06 10:28:28;;;;;;;10.20;1.55;;;15.20;99.90;;;;;;5049095;28;21489;-72
2022/10/06 10:31:00;;;;;;;8.45;1.50;;;15.30;99.90;;;;;;4998735;28;20057;-71
2022/10/06 10:33:55;;;;;;;7.18;1.48;;;15.30;99.90;;;;;;4973057;28;20050;-71
2022/10/06 10:36:29;;;;;;;9.63;1.50;;;15.20;99.90;;;;;;5010164;28;20046;-72
2022/10/06 10:38:55;;;;;;;7.60;1.42;;;15.30;99.90;;;;;;5025701;28;20112;-71
2022/10/06 10:41:26;;;;;;;9.98;1.73;;;15.40;99.90;;;;;;5009051;28;20042;-72
2022/10/06 10:44:08;;;;;;;8.20;1.20;;;15.40;99.90;;;;;;4993638;28;20135;-72
2022/10/06 10:46:50;;;;;;;8.13;1.75;;;15.50;99.90;;;;;;4993696;28;20858;-72
2022/10/06 10:49:26;;;;;;;9.90;1.60;;;15.50;99.90;;;;;;4991713;28;20038;-72
2022/10/06 10:52:00;;;;;;;8.35;1.85;;;15.30;99.90;;;;;;4992674;28;20050;-71
2022/10/06 10:54:36;;;;;;;8.05;1.73;;;15.20;99.90;;;;;;4992658;28;20841;-71
2022/10/06 10:57:02;;;;;;;7.97;1.42;;;15.20;99.90;;;;;;4976559;28;20058;-71
2022/10/06 10:59:42;;;;;;;11.63;1.70;;;15.30;99.90;;;;;;4991931;28;20092;-72
2022/10/06 11:02:15;;;;;;;6.88;1.52;;;15.30;99.90;;;;;;4993626;28;20042;-71
2022/10/06 11:04:46;;;;;;;8.52;1.30;;;15.40;99.90;;;;;;4980582;28;20043;-72
2022/10/06 11:07:35;;;;;;;9.90;1.67;;;15.40;99.90;;;;;;4974274;28;20050;-72
2022/10/06 11:10:24;;;;;;;9.18;1.30;;;15.60;99.90;;;;;;5007816;28;20054;-72
2022/10/06 11:13:03;;;;;;;7.22;1.40;;;15.60;99.90;;;;;;5023248;28;20046;-72
2022/10/06 11:15:48;;;;;;;7.32;1.40;;;15.50;99.90;;;;;;4993604;28;20043;-72
2022/10/06 11:18:39;;;;;;;9.40;1.67;;;15.40;99.90;;;;;;4976207;28;20121;-72
2022/10/06 11:21:30;;;;;;;8.02;1.58;;;15.30;99.90;;;;;;4990707;28;20042;-72
2022/10/06 11:24:17;;;;;;;8.63;1.40;;;15.30;99.90;;;;;;4981629;28;20058;-72
2022/10/06 11:26:48;;;;;;;7.75;1.42;;;15.40;99.90;;;;;;4982644;28;20046;-71
2022/10/06 11:29:51;;;;;;;6.97;1.00;;;15.60;99.90;;;;;;4993001;28;20512;-72
2022/10/06 11:32:26;;;;;;;7.53;1.65;;;15.70;99.90;;;;;;5025905;28;20500;-72
2022/10/06 11:34:52;;;;;;;5.70;1.38;;;15.80;99.90;;;;;;5007816;28;20038;-73
2022/10/06 11:37:31;;;;;;;7.20;1.45;;;15.90;99.90;;;;;;4974543;28;20097;-72
2022/10/06 11:40:21;;;;;;;7.97;1.30;;;15.90;99.90;;;;;;4989954;28;20046;-72
2022/10/06 11:42:57;;;;;;;7.38;1.10;;;15.90;99.90;;;;;;4989762;28;20504;-72
2022/10/06 11:45:41;;;;;;;8.55;1.55;;;15.80;99.90;;;;;;4974805;28;20121;-72
2022/10/06 11:48:20;;;;;;;6.45;1.10;;;15.70;99.90;;;;;;4997450;28;20116;-72
2022/10/06 11:50:49;;;;;;;8.43;1.23;;;15.70;99.90;;;;;;5025927;28;20504;-72
2022/10/06 11:53:30;;;;;;;8.23;1.48;;;15.60;99.90;;;;;;5024515;28;20508;-72
2022/10/06 11:56:14;;;;;;;8.85;1.38;;;15.70;99.90;;;;;;5004151;28;20038;-72
2022/10/06 11:58:55;;;;;;;5.75;1.25;;;15.90;99.90;;;;;;4991899;28;20061;-72
2022/10/06 12:01:29;;;;;;;8.10;1.83;;;15.90;99.90;;;;;;4989813;28;20054;-71
2022/10/06 12:04:08;;;;;;;8.57;1.42;;;15.90;99.90;;;;;;5008995;28;20051;-72
2022/10/06 12:06:46;;;;;;;6.88;1.30;;;15.80;99.90;;;;;;4984248;28;20169;-72
2022/10/06 12:09:29;;;;;;;7.38;1.50;;;15.70;99.90;;;;;;5007354;28;20050;-72
2022/10/06 12:12:13;;;;;;;7.85;1.50;;;15.80;99.90;;;;;;4991552;28;20092;-72
2022/10/06 12:15:03;;;;;;;8.35;1.30;;;15.90;99.90;;;;;;5005099;28;20082;-71
2022/10/06 12:17:35;;;;;;;5.28;1.00;;;16.00;99.90;;;;;;4994519;28;20396;-72
2022/10/06 12:20:17;;;;;;;7.93;1.10;;;16.00;99.90;;;;;;4991403;28;20061;-72
2022/10/06 12:22:49;;;;;;;8.05;1.25;;;16.00;99.90;;;;;;4975833;28;20050;-72
2022/10/06 12:25:27;;;;;;;;;;;16.00;99.90;;;;;;4988220;28;20054;-71
2022/10/06 12:28:04;;;;;;;6.82;1.10;;;15.90;99.90;;;;;;4995963;28;19918;-72
2022/10/06 12:30:49;;;;;;;6.68;1.00;;;15.90;99.90;;;;;;4975838;28;20500;-71
2022/10/06 12:33:17;;;;;;;7.93;1.40;;;15.90;99.90;;;;;;5007064;28;20154;-72
2022/10/06 12:35:44;;;;;;;5.50;1.10;;;15.90;99.90;;;;;;4990987;28;20030;-72
2022/10/06 12:38:40;;;;;;;8.32;1.70;;;15.90;99.90;;;;;;4991986;28;20038;-72
2022/10/06 12:41:12;;;;;;;4.90;1.10;;;15.90;99.90;;;;;;5000994;28;20042;-72
2022/10/06 12:43:56;;;;;;;5.95;1.35;;;15.90;99.90;;;;;;4973262;28;20042;-72
2022/10/06 12:46:27;;;;;;;6.00;1.15;;;15.90;99.90;;;;;;4997543;28;20035;-72
2022/10/06 12:49:34;;;;;;;6.85;1.10;;;15.90;99.90;;;;;;5014881;28;20097;-72
2022/10/06 12:52:08;;;;;;;8.95;1.30;;;15.90;99.90;;;;;;4974135;28;20038;-72
2022/10/06 12:54:58;;;;;;;6.20;1.30;;;15.90;99.90;;;;;;4992135;28;20172;-72
2022/10/06 12:57:29;;;;;;;5.53;1.20;;;16.00;99.90;;;;;;5007445;28;20054;-72
2022/10/06 12:59:55;;;;;;;5.30;1.70;;;16.00;99.90;;;;;;4974602;28;20050;-71
2022/10/06 13:02:25;;;;;;;6.57;1.35;;;16.00;99.90;;;;;;5006574;28;20042;-72
2022/10/06 13:04:53;;;;;;;6.75;1.23;;;16.00;99.90;;;;;;4974849;28;20078;-72
2022/10/06 13:07:31;;;;;;;6.72;1.17;;;16.00;99.90;;;;;;4989393;28;20050;-71
2022/10/06 13:10:12;;;;;;;8.73;1.17;;;15.90;99.90;;;;;;4975738;28;20084;-71
2022/10/06 13:12:40;;;;;;;7.38;1.33;;;15.90;99.90;;;;;;4975568;28;20042;-72
2022/10/06 13:15:09;;;;;;;6.47;1.25;;;15.90;99.90;;;;;;5006783;28;20046;-72
2022/10/06 13:17:50;;;;;;;8.85;1.45;;;15.90;99.90;;;;;;5007195;28;20046;-72